createdAt,value
2023-01-09T00:00:52.814Z,9.90
2023-01-09T00:03:22.763Z,9.90
2023-01-09T00:05:49.732Z,9.80
2023-01-09T00:08:16.569Z,9.80
2023-01-09T00:10:43.323Z,9.80
2023-01-09T00:13:13.691Z,9.90
2023-01-09T00:15:41.849Z,9.90
2023-01-09T00:18:08.629Z,9.90
2023-01-09T00:20:36.338Z,9.80
2023-01-09T00:23:04.665Z,9.70
2023-01-09T00:25:31.407Z,9.70
2023-01-09T00:27:58.140Z,9.60
2023-01-09T00:30:25.213Z,9.60
2023-01-09T00:32:52.032Z,9.60
2023-01-09T00:35:19.145Z,9.50
2023-01-09T00:37:46.529Z,9.50
2023-01-09T00:40:15.198Z,9.50
2023-01-09T00:42:44.833Z,9.50
2023-01-09T00:45:15.660Z,9.50
2023-01-09T00:47:46.917Z,9.50
2023-01-09T00:50:22.047Z,9.50
2023-01-09T00:52:50.690Z,9.50
2023-01-09T00:55:21.333Z,9.60
2023-01-09T00:57:48.580Z,9.70
2023-01-09T01:00:17.300Z,9.70
2023-01-09T01:02:44.338Z,9.80
2023-01-09T01:05:29.591Z,9.90
2023-01-09T01:07:56.327Z,9.90
2023-01-09T01:10:26.205Z,10.00
2023-01-09T01:12:53.239Z,10.10
2023-01-09T01:15:21.915Z,10.10
2023-01-09T01:17:50.406Z,10.10
2023-01-09T01:20:19.212Z,10.20
2023-01-09T01:22:46.826Z,10.20
2023-01-09T01:25:17.332Z,10.20
2023-01-09T01:27:45.400Z,10.30
2023-01-09T01:30:15.997Z,10.30
2023-01-09T01:32:42.727Z,10.20
2023-01-09T01:35:10.135Z,10.20
2023-01-09T01:37:38.241Z,10.10
2023-01-09T01:40:09.521Z,10.00
2023-01-09T01:42:36.423Z,10.10
2023-01-09T01:45:17.075Z,10.00
2023-01-09T01:48:07.299Z,10.10
2023-01-09T01:50:43.474Z,10.10
2023-01-09T01:53:35.816Z,10.20
2023-01-09T01:56:10.063Z,10.20
2023-01-09T01:58:44.734Z,10.20
2023-01-09T02:01:12.581Z,10.30
2023-01-09T02:03:41.508Z,10.30
2023-01-09T02:06:09.330Z,10.30
2023-01-09T02:08:36.714Z,10.30
2023-01-09T02:11:04.793Z,10.40
2023-01-09T02:13:33.835Z,10.40
2023-01-09T02:16:41.734Z,10.40
2023-01-09T02:19:23.218Z,10.50
2023-01-09T02:22:40.944Z,10.50
2023-01-09T02:25:33.485Z,10.50
2023-01-09T02:29:02.555Z,10.50
2023-01-09T02:31:45.020Z,10.50
2023-01-09T02:34:38.558Z,10.50
2023-01-09T02:37:17.614Z,10.50
2023-01-09T02:39:59.121Z,10.50
2023-01-09T02:42:27.168Z,10.50
2023-01-09T02:44:54.323Z,10.50
2023-01-09T02:47:21.000Z,10.50
2023-01-09T02:50:00.294Z,10.50
2023-01-09T02:52:37.029Z,10.50
2023-01-09T02:55:07.630Z,10.50
2023-01-09T02:58:04.797Z,10.50
2023-01-09T03:01:08.476Z,10.50
2023-01-09T03:03:46.992Z,10.50
2023-01-09T03:06:30.964Z,10.50
2023-01-09T03:09:03.564Z,10.40
2023-01-09T03:11:38.349Z,10.50
2023-01-09T03:14:13.134Z,10.40
2023-01-09T03:16:40.032Z,10.40
2023-01-09T03:19:11.652Z,10.30
2023-01-09T03:21:39.767Z,10.40
2023-01-09T03:24:07.390Z,10.30
2023-01-09T03:26:34.413Z,10.30
2023-01-09T03:29:01.594Z,10.30
2023-01-09T03:31:28.532Z,10.20
2023-01-09T03:33:55.554Z,10.20
2023-01-09T03:36:23.099Z,10.20
2023-01-09T03:38:50.106Z,10.20
2023-01-09T03:41:17.339Z,10.10
2023-01-09T03:43:44.043Z,10.10
2023-01-09T03:46:11.352Z,10.10
2023-01-09T03:48:38.137Z,10.10
2023-01-09T03:51:04.976Z,10.00
2023-01-09T03:53:31.744Z,10.00
2023-01-09T03:56:00.067Z,10.00
2023-01-09T03:58:27.717Z,9.90
2023-01-09T04:01:03.923Z,9.90
2023-01-09T04:03:32.191Z,9.90
2023-01-09T04:05:58.969Z,9.90
2023-01-09T04:08:25.856Z,9.90
2023-01-09T04:10:52.820Z,9.90
2023-01-09T04:13:20.500Z,9.90
2023-01-09T04:15:47.260Z,9.80
2023-01-09T04:18:14.008Z,9.80
2023-01-09T04:20:41.029Z,9.80
2023-01-09T04:23:07.824Z,9.80
2023-01-09T04:25:35.079Z,9.80
2023-01-09T04:28:03.224Z,9.80
2023-01-09T04:30:30.264Z,9.80
2023-01-09T04:32:57.076Z,9.70
2023-01-09T04:35:23.773Z,9.70
2023-01-09T04:37:50.646Z,9.60
2023-01-09T04:40:18.060Z,9.60
2023-01-09T04:42:44.860Z,9.60
2023-01-09T04:45:12.413Z,9.60
2023-01-09T04:47:39.189Z,9.60
2023-01-09T04:50:06.264Z,9.60
2023-01-09T04:52:32.952Z,9.60
2023-01-09T04:54:59.646Z,9.70
2023-01-09T04:57:26.928Z,9.70
2023-01-09T04:59:55.298Z,9.70
2023-01-09T05:02:22.063Z,9.70
2023-01-09T05:04:51.368Z,9.70
2023-01-09T05:07:18.081Z,9.60
2023-01-09T05:09:44.892Z,9.50
2023-01-09T05:12:11.847Z,9.50
2023-01-09T05:14:38.577Z,9.30
2023-01-09T05:17:05.279Z,9.20
2023-01-09T05:19:32.478Z,9.20
2023-01-09T05:21:59.156Z,9.30
2023-01-09T05:24:25.873Z,9.20
2023-01-09T05:26:54.080Z,9.20
2023-01-09T05:29:20.810Z,9.20
2023-01-09T05:31:47.641Z,9.20
2023-01-09T05:34:14.419Z,9.20
2023-01-09T05:36:41.658Z,9.20
2023-01-09T05:39:08.442Z,9.10
2023-01-09T05:41:35.250Z,9.10
2023-01-09T05:44:02.599Z,9.20
2023-01-09T05:46:30.308Z,9.20
2023-01-09T05:48:57.202Z,9.10
2023-01-09T05:51:23.912Z,9.20
2023-01-09T05:53:50.820Z,9.20
2023-01-09T05:56:17.474Z,9.20
2023-01-09T05:58:44.285Z,9.20
2023-01-09T06:01:11.352Z,9.20
2023-01-09T06:03:38.085Z,9.20
2023-01-09T06:06:05.003Z,9.10
2023-01-09T06:08:31.736Z,9.10
2023-01-09T06:10:59.515Z,9.10
2023-01-09T06:13:27.578Z,8.90
2023-01-09T06:15:54.708Z,8.90
2023-01-09T06:18:21.434Z,8.90
2023-01-09T06:20:48.185Z,8.90
2023-01-09T06:23:15.731Z,8.90
2023-01-09T06:25:42.830Z,8.90
2023-01-09T06:28:09.910Z,8.90
2023-01-09T06:30:36.760Z,8.80
2023-01-09T06:33:03.564Z,8.80
2023-01-09T06:35:31.228Z,8.80
2023-01-09T06:37:59.831Z,8.90
2023-01-09T06:40:26.688Z,8.90
2023-01-09T06:42:54.881Z,8.90
2023-01-09T06:45:21.806Z,8.90
2023-01-09T06:47:50.270Z,8.90
2023-01-09T06:50:18.440Z,8.90
2023-01-09T06:52:45.277Z,8.90
2023-01-09T06:55:11.978Z,8.90
2023-01-09T06:57:38.758Z,8.90
2023-01-09T07:00:05.988Z,8.80
2023-01-09T07:02:32.826Z,8.80
2023-01-09T07:04:59.565Z,8.80
2023-01-09T07:07:30.082Z,8.80
2023-01-09T07:09:57.002Z,8.80
2023-01-09T07:12:23.696Z,8.80
2023-01-09T07:14:50.515Z,8.80
2023-01-09T07:17:17.272Z,8.70
2023-01-09T07:19:43.990Z,8.70
2023-01-09T07:22:11.957Z,8.70
2023-01-09T07:24:38.751Z,8.70
2023-01-09T07:27:05.512Z,8.70
2023-01-09T07:29:32.314Z,8.70
2023-01-09T07:32:00.561Z,8.70
2023-01-09T07:34:27.342Z,8.70
2023-01-09T07:36:55.777Z,8.80
2023-01-09T07:39:22.623Z,8.70
2023-01-09T07:41:49.338Z,8.80
2023-01-09T07:44:16.576Z,8.80
2023-01-09T07:46:43.303Z,8.80
2023-01-09T07:49:10.177Z,8.80
2023-01-09T07:51:42.921Z,8.80
2023-01-09T07:54:10.665Z,8.90
2023-01-09T07:56:37.395Z,8.90
2023-01-09T07:59:04.113Z,9.00
2023-01-09T08:01:31.006Z,8.90
2023-01-09T08:03:57.895Z,8.80
2023-01-09T08:06:25.853Z,8.80
2023-01-09T08:08:52.689Z,8.80
2023-01-09T08:11:19.454Z,8.80
2023-01-09T08:13:46.219Z,8.80
2023-01-09T08:16:15.304Z,8.80
2023-01-09T08:18:42.386Z,8.90
2023-01-09T08:21:11.438Z,8.90
2023-01-09T08:23:38.540Z,8.90
2023-01-09T08:26:06.517Z,9.00
2023-01-09T08:28:34.531Z,9.00
2023-01-09T08:31:01.246Z,9.10
2023-01-09T08:33:28.070Z,9.10
2023-01-09T08:35:54.893Z,9.10
2023-01-09T08:38:22.483Z,9.20
2023-01-09T08:40:49.442Z,9.10
2023-01-09T08:43:35.127Z,9.10
2023-01-09T08:46:01.986Z,9.10
2023-01-09T08:48:28.801Z,9.10
2023-01-09T08:50:55.474Z,9.10
2023-01-09T08:53:22.804Z,9.20
2023-01-09T08:55:49.858Z,9.20
2023-01-09T08:58:17.035Z,9.30
2023-01-09T09:00:44.868Z,9.30
2023-01-09T09:03:12.173Z,9.30
2023-01-09T09:05:39.003Z,9.40
2023-01-09T09:08:07.130Z,9.40
2023-01-09T09:10:35.547Z,9.40
2023-01-09T09:13:02.430Z,9.40
2023-01-09T09:15:29.636Z,9.50
2023-01-09T09:17:59.233Z,9.80
2023-01-09T09:20:30.311Z,9.90
2023-01-09T09:22:57.386Z,10.10
2023-01-09T09:25:24.469Z,10.20
2023-01-09T09:27:51.634Z,10.30
2023-01-09T09:30:19.995Z,10.40
2023-01-09T09:32:47.222Z,10.50
2023-01-09T09:35:14.341Z,10.60
2023-01-09T09:37:42.294Z,10.70
2023-01-09T09:40:19.973Z,10.70
2023-01-09T09:43:26.715Z,10.70
2023-01-09T09:46:24.289Z,10.70
2023-01-09T09:49:02.883Z,10.60
2023-01-09T09:51:50.166Z,10.40
2023-01-09T09:54:41.275Z,10.40
2023-01-09T09:57:14.106Z,10.50
2023-01-09T09:59:42.990Z,10.60
2023-01-09T10:02:21.993Z,10.70
2023-01-09T10:04:54.690Z,10.80
2023-01-09T10:07:28.553Z,10.90
2023-01-09T10:10:00.556Z,11.00
2023-01-09T10:12:48.329Z,11.10
2023-01-09T10:15:26.385Z,11.20
2023-01-09T10:18:11.086Z,11.30
2023-01-09T10:20:48.259Z,11.30
2023-01-09T10:23:35.284Z,11.40
2023-01-09T10:26:30.422Z,11.40
2023-01-09T10:29:15.662Z,11.40
2023-01-09T10:31:54.916Z,11.50
2023-01-09T10:34:42.095Z,11.50
2023-01-09T10:37:18.799Z,11.50
2023-01-09T10:40:05.874Z,11.50
2023-01-09T10:42:41.213Z,11.60
2023-01-09T10:45:44.082Z,11.70
2023-01-09T10:48:31.659Z,11.80
2023-01-09T10:50:59.479Z,11.90
2023-01-09T10:53:36.845Z,11.90
2023-01-09T10:56:27.439Z,11.90
2023-01-09T10:58:55.755Z,11.90
2023-01-09T11:01:37.593Z,11.90
2023-01-09T11:04:21.193Z,11.80
2023-01-09T11:06:53.119Z,11.90
2023-01-09T11:09:20.561Z,12.00
2023-01-09T11:11:49.948Z,12.00
2023-01-09T11:14:20.579Z,12.00
2023-01-09T11:16:58.717Z,12.00
2023-01-09T11:19:27.324Z,12.00
2023-01-09T11:22:08.729Z,11.90
2023-01-09T11:24:35.652Z,12.00
2023-01-09T11:27:14.595Z,12.00
2023-01-09T11:29:42.229Z,12.00
2023-01-09T11:32:23.518Z,12.10
2023-01-09T11:34:51.691Z,12.20
2023-01-09T11:37:31.761Z,12.30
2023-01-09T11:40:00.617Z,12.40
2023-01-09T11:42:48.498Z,12.40
2023-01-09T11:45:30.994Z,12.40
2023-01-09T11:47:58.819Z,12.40
2023-01-09T11:50:31.060Z,12.40
2023-01-09T11:53:15.309Z,12.40
2023-01-09T11:55:43.395Z,12.40
2023-01-09T11:58:21.935Z,12.30
2023-01-09T12:01:08.886Z,12.20
2023-01-09T12:04:03.975Z,12.20
2023-01-09T12:06:53.358Z,12.10
2023-01-09T12:09:35.867Z,12.00
2023-01-09T12:12:20.407Z,12.00
2023-01-09T12:14:47.180Z,12.00
2023-01-09T12:17:38.002Z,12.00
2023-01-09T12:20:20.280Z,12.10
2023-01-09T12:22:51.995Z,12.20
2023-01-09T12:25:40.858Z,12.20
2023-01-09T12:28:19.501Z,12.30
2023-01-09T12:31:14.525Z,12.30
2023-01-09T12:34:19.154Z,12.30
2023-01-09T12:37:04.852Z,12.30
2023-01-09T12:39:50.582Z,12.30
2023-01-09T12:42:35.106Z,12.30
2023-01-09T12:45:31.878Z,12.30
2023-01-09T12:48:14.742Z,12.20
2023-01-09T12:51:23.808Z,12.20
2023-01-09T12:53:58.222Z,12.20
2023-01-09T12:56:31.311Z,12.30
2023-01-09T12:59:04.737Z,12.30
2023-01-09T13:01:46.635Z,12.30
2023-01-09T13:04:22.024Z,12.40
2023-01-09T13:06:55.213Z,12.30
2023-01-09T13:09:32.390Z,12.40
2023-01-09T13:12:14.029Z,12.40
2023-01-09T13:15:01.836Z,12.40
2023-01-09T13:17:55.083Z,12.40
2023-01-09T13:20:30.459Z,12.40
2023-01-09T13:22:57.444Z,12.40
2023-01-09T13:25:39.475Z,12.30
2023-01-09T13:28:15.114Z,12.40
2023-01-09T13:31:16.098Z,12.40
2023-01-09T13:33:54.313Z,12.40
2023-01-09T13:36:29.112Z,12.40
2023-01-09T13:38:58.316Z,12.40
2023-01-09T13:41:45.830Z,12.40
2023-01-09T13:44:18.508Z,12.40
2023-01-09T13:46:48.175Z,12.40
2023-01-09T13:49:47.367Z,12.40
2023-01-09T13:52:34.786Z,12.30
2023-01-09T13:55:23.651Z,12.30
2023-01-09T13:58:13.788Z,12.30
2023-01-09T14:00:44.486Z,12.30
2023-01-09T14:03:28.345Z,12.40
2023-01-09T14:05:54.998Z,12.40
2023-01-09T14:08:27.552Z,12.40
2023-01-09T14:11:01.076Z,12.40
2023-01-09T14:13:34.699Z,12.30
2023-01-09T14:16:23.862Z,12.30
2023-01-09T14:18:54.797Z,12.30
2023-01-09T14:21:21.687Z,12.30
2023-01-09T14:23:52.570Z,12.30
2023-01-09T14:26:25.959Z,12.30
2023-01-09T14:29:12.795Z,12.30
2023-01-09T14:31:39.596Z,12.40
2023-01-09T14:34:32.103Z,12.30
2023-01-09T14:37:01.480Z,12.30
2023-01-09T14:39:31.501Z,12.20
2023-01-09T14:42:09.334Z,12.20
2023-01-09T14:45:07.748Z,12.20
2023-01-09T14:47:40.087Z,12.20
2023-01-09T14:50:16.258Z,12.20
2023-01-09T14:52:55.804Z,12.20
2023-01-09T14:55:45.627Z,12.10
2023-01-09T14:58:18.494Z,12.10
2023-01-09T15:00:55.682Z,12.10
2023-01-09T15:03:24.258Z,12.10
2023-01-09T15:05:52.764Z,12.10
2023-01-09T15:08:23.885Z,12.10
2023-01-09T15:10:53.674Z,12.00
2023-01-09T15:13:34.382Z,12.00
2023-01-09T15:16:04.328Z,11.90
2023-01-09T15:18:37.969Z,11.90
2023-01-09T15:21:05.761Z,11.80
2023-01-09T15:23:33.923Z,11.80
2023-01-09T15:26:28.388Z,11.90
2023-01-09T15:29:12.453Z,11.90
2023-01-09T15:31:42.128Z,11.90
2023-01-09T15:34:17.549Z,12.00
2023-01-09T15:36:44.877Z,12.10
2023-01-09T15:39:18.388Z,12.10
2023-01-09T15:42:05.335Z,12.20
2023-01-09T15:44:36.318Z,12.10
2023-01-09T15:47:06.672Z,12.00
2023-01-09T15:49:34.939Z,12.10
2023-01-09T15:52:02.430Z,12.10
2023-01-09T15:54:31.683Z,12.10
2023-01-09T15:57:26.396Z,12.00
2023-01-09T15:59:53.757Z,12.00
2023-01-09T16:02:41.701Z,12.00
2023-01-09T16:05:15.931Z,12.00
2023-01-09T16:07:47.777Z,11.90
2023-01-09T16:10:51.095Z,12.00
2023-01-09T16:13:24.245Z,12.20
2023-01-09T16:15:52.299Z,12.20
2023-01-09T16:18:29.071Z,12.20
2023-01-09T16:21:22.135Z,12.20
2023-01-09T16:23:58.819Z,12.10
2023-01-09T16:26:30.445Z,12.10
2023-01-09T16:29:17.477Z,12.10
2023-01-09T16:31:44.451Z,11.90
2023-01-09T16:34:13.127Z,11.90
2023-01-09T16:36:39.866Z,11.90
2023-01-09T16:39:06.659Z,11.80
2023-01-09T16:41:52.293Z,11.70
2023-01-09T16:44:19.529Z,11.70
2023-01-09T16:46:48.104Z,11.60
2023-01-09T16:49:23.622Z,11.60
2023-01-09T16:51:51.670Z,11.60
2023-01-09T16:54:19.196Z,11.50
2023-01-09T16:56:50.912Z,11.50
2023-01-09T16:59:20.796Z,11.50
2023-01-09T17:01:51.729Z,11.40
2023-01-09T17:04:20.240Z,11.40
2023-01-09T17:06:49.101Z,11.40
2023-01-09T17:09:18.684Z,11.30
2023-01-09T17:11:45.793Z,11.30
2023-01-09T17:14:13.557Z,11.30
2023-01-09T17:16:46.979Z,11.20
2023-01-09T17:19:17.662Z,11.20
2023-01-09T17:21:44.796Z,11.20
2023-01-09T17:24:30.295Z,11.10
2023-01-09T17:27:16.084Z,11.10
2023-01-09T17:29:43.071Z,11.10
2023-01-09T17:32:14.922Z,11.10
2023-01-09T17:34:42.365Z,11.10
2023-01-09T17:37:18.558Z,11.10
2023-01-09T17:39:45.709Z,11.00
2023-01-09T17:42:13.653Z,11.10
2023-01-09T17:44:40.496Z,11.10
2023-01-09T17:47:12.295Z,11.10
2023-01-09T17:49:41.729Z,11.10
2023-01-09T17:52:08.683Z,11.10
2023-01-09T17:54:35.597Z,11.10
2023-01-09T17:57:02.539Z,11.00
2023-01-09T17:59:30.286Z,11.10
2023-01-09T18:01:57.186Z,11.00
2023-01-09T18:04:25.167Z,11.10
2023-01-09T18:06:53.487Z,11.00
2023-01-09T18:09:20.299Z,11.00
2023-01-09T18:11:48.380Z,10.80
2023-01-09T18:14:15.687Z,10.80
2023-01-09T18:16:42.765Z,10.80
2023-01-09T18:19:10.333Z,10.80
2023-01-09T18:21:37.065Z,10.70
2023-01-09T18:24:04.065Z,10.80
2023-01-09T18:26:30.988Z,10.80
2023-01-09T18:29:00.615Z,10.80
2023-01-09T18:31:28.688Z,10.80
2023-01-09T18:33:57.629Z,10.80
2023-01-09T18:36:30.586Z,10.70
2023-01-09T18:39:00.187Z,10.70
2023-01-09T18:41:28.075Z,10.60
2023-01-09T18:43:56.954Z,10.60
2023-01-09T18:46:24.715Z,10.60
2023-01-09T18:48:55.625Z,10.60
2023-01-09T18:51:23.624Z,10.60
2023-01-09T18:53:51.133Z,10.60
2023-01-09T18:56:19.319Z,10.50
2023-01-09T18:58:46.924Z,10.60
2023-01-09T19:01:15.248Z,10.60
2023-01-09T19:03:42.374Z,10.60
2023-01-09T19:06:09.427Z,10.60
2023-01-09T19:08:36.628Z,10.60
2023-01-09T19:11:03.606Z,10.70
2023-01-09T19:13:32.527Z,10.70
2023-01-09T19:16:00.236Z,10.70
2023-01-09T19:18:27.909Z,10.70
2023-01-09T19:20:56.331Z,10.70
2023-01-09T19:23:26.899Z,10.70
2023-01-09T19:25:59.657Z,10.60
2023-01-09T19:28:27.750Z,10.50
2023-01-09T19:30:56.970Z,10.50
2023-01-09T19:33:25.307Z,10.50
2023-01-09T19:35:53.019Z,10.40
2023-01-09T19:38:23.233Z,10.40
2023-01-09T19:40:50.379Z,10.40
2023-01-09T19:43:26.041Z,10.40
2023-01-09T19:45:56.481Z,10.40
2023-01-09T19:48:25.087Z,10.40
2023-01-09T19:50:59.049Z,10.40
2023-01-09T19:53:26.760Z,10.40
2023-01-09T19:55:53.575Z,10.40
2023-01-09T19:58:20.334Z,10.40
2023-01-09T20:00:47.090Z,10.40
2023-01-09T20:03:13.792Z,10.40
2023-01-09T20:05:40.510Z,10.40
2023-01-09T20:08:08.556Z,10.50
2023-01-09T20:10:35.224Z,10.50
2023-01-09T20:13:01.946Z,10.50
2023-01-09T20:15:28.841Z,10.60
2023-01-09T20:17:55.570Z,10.60
2023-01-09T20:20:22.272Z,10.60
2023-01-09T20:22:49.396Z,10.60
2023-01-09T20:25:17.578Z,10.60
2023-01-09T20:27:44.330Z,10.70
2023-01-09T20:30:12.883Z,10.70
2023-01-09T20:32:39.927Z,10.70
2023-01-09T20:35:07.732Z,10.70
2023-01-09T20:37:38.157Z,10.80
2023-01-09T20:40:05.409Z,10.80
2023-01-09T20:42:32.493Z,10.80
2023-01-09T20:44:59.673Z,10.80
2023-01-09T20:47:29.124Z,10.80
2023-01-09T20:49:57.157Z,10.70
2023-01-09T20:52:25.257Z,10.70
2023-01-09T20:54:55.440Z,10.70
2023-01-09T20:57:22.259Z,10.70
2023-01-09T20:59:49.054Z,10.60
2023-01-09T21:02:15.962Z,10.60
2023-01-09T21:04:42.755Z,10.60
2023-01-09T21:07:10.995Z,10.60
2023-01-09T21:09:38.149Z,10.70
2023-01-09T21:12:24.677Z,10.60
2023-01-09T21:14:51.636Z,10.60
2023-01-09T21:17:18.719Z,10.60
2023-01-09T21:19:48.374Z,10.60
2023-01-09T21:22:16.685Z,10.60
2023-01-09T21:24:43.356Z,10.70
2023-01-09T21:27:10.222Z,10.70
2023-01-09T21:29:37.099Z,10.70
2023-01-09T21:32:03.936Z,10.70
2023-01-09T21:34:30.805Z,10.70
2023-01-09T21:36:58.097Z,10.70
2023-01-09T21:39:25.353Z,10.80
2023-01-09T21:42:11.033Z,10.70
2023-01-09T21:44:56.347Z,10.70
2023-01-09T21:47:23.359Z,10.70
2023-01-09T21:49:50.191Z,10.70
2023-01-09T21:52:18.359Z,10.70
2023-01-09T21:54:45.065Z,10.70
2023-01-09T21:57:12.971Z,10.70
2023-01-09T21:59:39.678Z,10.70
2023-01-09T22:02:09.680Z,10.70
2023-01-09T22:04:36.455Z,10.70
2023-01-09T22:07:03.225Z,10.70
2023-01-09T22:09:30.013Z,10.70
2023-01-09T22:11:58.171Z,10.70
2023-01-09T22:14:25.236Z,10.70
2023-01-09T22:16:52.101Z,10.70
2023-01-09T22:19:18.890Z,10.70
2023-01-09T22:21:46.349Z,10.70
2023-01-09T22:24:14.487Z,10.70
2023-01-09T22:26:41.195Z,10.70
2023-01-09T22:29:08.645Z,10.70
2023-01-09T22:31:39.671Z,10.60
2023-01-09T22:34:06.747Z,10.60
2023-01-09T22:36:33.956Z,10.70
2023-01-09T22:39:01.744Z,10.60
2023-01-09T22:41:33.065Z,10.60
2023-01-09T22:44:00.151Z,10.60
2023-01-09T22:46:27.005Z,10.60
2023-01-09T22:48:53.815Z,10.60
2023-01-09T22:51:21.976Z,10.50
2023-01-09T22:53:49.686Z,10.60
2023-01-09T22:56:21.755Z,10.60
2023-01-09T22:58:53.055Z,10.60
2023-01-09T23:01:22.042Z,10.60
2023-01-09T23:03:49.044Z,10.50
2023-01-09T23:06:21.193Z,10.50
2023-01-09T23:08:52.833Z,10.50
2023-01-09T23:11:43.328Z,10.50
2023-01-09T23:14:10.982Z,10.50
2023-01-09T23:16:39.025Z,10.50
2023-01-09T23:19:14.699Z,10.50
2023-01-09T23:21:43.809Z,10.50
2023-01-09T23:24:11.568Z,10.50
2023-01-09T23:26:41.323Z,10.50
2023-01-09T23:29:09.528Z,10.50
2023-01-09T23:31:37.548Z,10.40
2023-01-09T23:34:07.994Z,10.50
2023-01-09T23:36:35.160Z,10.40
2023-01-09T23:39:04.171Z,10.40
2023-01-09T23:41:49.894Z,10.40
2023-01-09T23:44:16.598Z,10.40
2023-01-09T23:46:43.440Z,10.40
2023-01-09T23:49:10.373Z,10.40
2023-01-09T23:51:37.075Z,10.40
2023-01-09T23:54:03.869Z,10.40
2023-01-09T23:56:31.601Z,10.40
2023-01-09T23:58:58.484Z,10.40
